Kezdőlap
METAR-TAF:

METAR-TAF

Repülőterek :

Bückeburg, Németország

földrajzi szélesség: 52-17N, földrajzi hosszúság: 009-05E, magasság: 70 m

Jelenlegi meteorológiai megfigyelések

A jelentés 39 perccel ezelõtt készült, 19:20 UTC
Nyugati szél 18 kt
Hőmérséklet 8°C
Páratartalom 87%
Légköri nyomás 1016 hPa
Látótávolság: 3200 m

METAR: ETHB 221920Z AUTO 28018KT 3200 // ////// 08/06 Q1016 ///

Idő: 20:59 (19:59 UTC)


TAF: hiányzik

Meteorológiai megfigyelések és előrejelzések több, mint 4000 repülőtéren (METAR és TAF jelentéseket).

A térképen piros és sárga pontok jelzik az elérhető meteorológiai állomásokat.

Mozgassa az egeret a pont fölött, hogy megjelenjen az állomás neve.

Azután kattintson az időjárási megfigyelések és előrejelzések megtekintéséhez.

A térkép megváltoztatása: kattintson a fekete keresztel jelölt zöld gombra ráközelítéshez, a vonallal jelölt zöld gombra távolításhoz, vagy a zöld nyilakra a szomszédos térképek eléréséhez.


METAR-TAF: